sensor_id;sensor_type;location;lat;lon;timestamp;P1;durP1;ratioP1;P2;durP2;ratioP2
17985;SDS011;9118;48.122;11.546;2023-05-10T00:00:48;2.00;;;1.80;;
17985;SDS011;9118;48.122;11.546;2023-05-10T00:03:23;2.00;;;1.80;;
17985;SDS011;9118;48.122;11.546;2023-05-10T00:05:53;1.80;;;1.70;;
17985;SDS011;9118;48.122;11.546;2023-05-10T00:08:22;1.80;;;1.70;;
17985;SDS011;9118;48.122;11.546;2023-05-10T00:10:49;2.77;;;1.67;;
17985;SDS011;9118;48.122;11.546;2023-05-10T00:13:18;1.57;;;1.47;;
17985;SDS011;9118;48.122;11.546;2023-05-10T00:15:51;2.73;;;1.60;;
17985;SDS011;9118;48.122;11.546;2023-05-10T00:18:19;1.70;;;1.60;;
17985;SDS011;9118;48.122;11.546;2023-05-10T00:20:50;2.40;;;1.50;;
17985;SDS011;9118;48.122;11.546;2023-05-10T00:23:23;3.03;;;1.50;;
17985;SDS011;9118;48.122;11.546;2023-05-10T00:25:51;1.83;;;1.50;;
17985;SDS011;9118;48.122;11.546;2023-05-10T00:28:18;1.73;;;1.57;;
17985;SDS011;9118;48.122;11.546;2023-05-10T00:30:47;1.40;;;1.30;;
17985;SDS011;9118;48.122;11.546;2023-05-10T00:33:14;1.50;;;1.40;;
17985;SDS011;9118;48.122;11.546;2023-05-10T00:35:43;1.60;;;1.50;;
17985;SDS011;9118;48.122;11.546;2023-05-10T00:38:10;1.70;;;1.60;;
17985;SDS011;9118;48.122;11.546;2023-05-10T00:40:37;2.63;;;1.80;;
17985;SDS011;9118;48.122;11.546;2023-05-10T00:43:05;1.93;;;1.20;;
17985;SDS011;9118;48.122;11.546;2023-05-10T00:45:34;1.20;;;1.20;;
17985;SDS011;9118;48.122;11.546;2023-05-10T00:48:09;2.40;;;1.83;;
17985;SDS011;9118;48.122;11.546;2023-05-10T00:50:36;2.17;;;1.30;;
17985;SDS011;9118;48.122;11.546;2023-05-10T00:53:03;1.23;;;1.20;;
17985;SDS011;9118;48.122;11.546;2023-05-10T00:55:31;1.97;;;1.30;;
17985;SDS011;9118;48.122;11.546;2023-05-10T00:57:59;1.20;;;1.20;;
17985;SDS011;9118;48.122;11.546;2023-05-10T01:00:27;1.40;;;1.30;;
17985;SDS011;9118;48.122;11.546;2023-05-10T01:02:55;1.40;;;1.30;;
17985;SDS011;9118;48.122;11.546;2023-05-10T01:05:23;2.40;;;1.60;;
17985;SDS011;9118;48.122;11.546;2023-05-10T01:07:52;1.30;;;1.20;;
17985;SDS011;9118;48.122;11.546;2023-05-10T01:10:20;1.20;;;1.20;;
17985;SDS011;9118;48.122;11.546;2023-05-10T01:12:47;1.93;;;1.30;;
17985;SDS011;9118;48.122;11.546;2023-05-10T01:15:15;1.13;;;1.13;;
17985;SDS011;9118;48.122;11.546;2023-05-10T01:17:44;3.27;;;1.20;;
17985;SDS011;9118;48.122;11.546;2023-05-10T01:20:13;1.30;;;1.20;;
17985;SDS011;9118;48.122;11.546;2023-05-10T01:32:06;0.90;;;0.90;;
17985;SDS011;9118;48.122;11.546;2023-05-10T01:34:50;1.13;;;1.03;;
17985;SDS011;9118;48.122;11.546;2023-05-10T01:37:28;1.50;;;1.17;;
17985;SDS011;9118;48.122;11.546;2023-05-10T01:40:02;1.10;;;1.07;;
17985;SDS011;9118;48.122;11.546;2023-05-10T01:42:36;2.70;;;1.10;;
17985;SDS011;9118;48.122;11.546;2023-05-10T01:45:10;2.10;;;1.10;;
17985;SDS011;9118;48.122;11.546;2023-05-10T01:47:46;2.07;;;1.17;;
17985;SDS011;9118;48.122;11.546;2023-05-10T01:50:22;1.10;;;1.00;;
17985;SDS011;9118;48.122;11.546;2023-05-10T01:52:54;1.70;;;0.80;;
17985;SDS011;9118;48.122;11.546;2023-05-10T01:55:24;1.27;;;0.73;;
17985;SDS011;9118;48.122;11.546;2023-05-10T01:57:58;0.80;;;0.80;;
17985;SDS011;9118;48.122;11.546;2023-05-10T02:00:29;1.10;;;1.10;;
17985;SDS011;9118;48.122;11.546;2023-05-10T02:02:58;0.70;;;0.70;;
17985;SDS011;9118;48.122;11.546;2023-05-10T02:05:30;0.90;;;0.90;;
17985;SDS011;9118;48.122;11.546;2023-05-10T02:08:00;1.00;;;1.00;;
17985;SDS011;9118;48.122;11.546;2023-05-10T02:10:29;1.10;;;1.10;;
17985;SDS011;9118;48.122;11.546;2023-05-10T02:12:58;1.00;;;1.00;;
17985;SDS011;9118;48.122;11.546;2023-05-10T02:15:26;1.00;;;1.00;;
17985;SDS011;9118;48.122;11.546;2023-05-10T02:17:55;1.00;;;1.00;;
17985;SDS011;9118;48.122;11.546;2023-05-10T02:20:25;0.93;;;0.80;;
17985;SDS011;9118;48.122;11.546;2023-05-10T02:22:54;0.90;;;0.90;;
17985;SDS011;9118;48.122;11.546;2023-05-10T02:25:26;1.50;;;1.10;;
17985;SDS011;9118;48.122;11.546;2023-05-10T02:27:55;1.30;;;1.20;;
17985;SDS011;9118;48.122;11.546;2023-05-10T02:30:24;1.07;;;1.00;;
17985;SDS011;9118;48.122;11.546;2023-05-10T02:32:52;1.53;;;1.23;;
17985;SDS011;9118;48.122;11.546;2023-05-10T02:35:20;3.03;;;1.20;;
17985;SDS011;9118;48.122;11.546;2023-05-10T02:37:51;1.00;;;0.90;;
17985;SDS011;9118;48.122;11.546;2023-05-10T02:40:19;2.00;;;1.20;;
17985;SDS011;9118;48.122;11.546;2023-05-10T02:42:50;0.90;;;0.90;;
17985;SDS011;9118;48.122;11.546;2023-05-10T02:45:19;1.37;;;1.10;;
17985;SDS011;9118;48.122;11.546;2023-05-10T02:47:49;0.90;;;0.90;;
17985;SDS011;9118;48.122;11.546;2023-05-10T02:50:17;1.43;;;1.33;;
17985;SDS011;9118;48.122;11.546;2023-05-10T02:52:46;1.23;;;1.13;;
17985;SDS011;9118;48.122;11.546;2023-05-10T02:55:16;1.60;;;1.30;;
17985;SDS011;9118;48.122;11.546;2023-05-10T02:57:48;1.10;;;1.10;;
17985;SDS011;9118;48.122;11.546;2023-05-10T03:00:18;1.17;;;1.13;;
17985;SDS011;9118;48.122;11.546;2023-05-10T03:02:46;1.20;;;1.20;;
17985;SDS011;9118;48.122;11.546;2023-05-10T03:05:13;3.07;;;1.20;;
17985;SDS011;9118;48.122;11.546;2023-05-10T03:07:40;1.00;;;0.90;;
17985;SDS011;9118;48.122;11.546;2023-05-10T03:10:07;1.20;;;1.10;;
17985;SDS011;9118;48.122;11.546;2023-05-10T03:12:41;2.57;;;1.60;;
17985;SDS011;9118;48.122;11.546;2023-05-10T03:15:20;1.50;;;1.40;;
17985;SDS011;9118;48.122;11.546;2023-05-10T03:17:57;2.30;;;1.10;;
17985;SDS011;9118;48.122;11.546;2023-05-10T03:20:32;0.80;;;0.80;;
17985;SDS011;9118;48.122;11.546;2023-05-10T03:23:04;0.80;;;0.80;;
17985;SDS011;9118;48.122;11.546;2023-05-10T03:25:34;0.80;;;0.80;;
17985;SDS011;9118;48.122;11.546;2023-05-10T03:28:03;1.13;;;0.90;;
17985;SDS011;9118;48.122;11.546;2023-05-10T03:30:31;1.07;;;0.80;;
17985;SDS011;9118;48.122;11.546;2023-05-10T03:32:59;2.40;;;1.00;;
17985;SDS011;9118;48.122;11.546;2023-05-10T03:35:31;0.87;;;0.87;;
17985;SDS011;9118;48.122;11.546;2023-05-10T03:37:58;1.00;;;1.00;;
17985;SDS011;9118;48.122;11.546;2023-05-10T03:40:26;0.90;;;0.90;;
17985;SDS011;9118;48.122;11.546;2023-05-10T03:42:54;2.43;;;1.30;;
17985;SDS011;9118;48.122;11.546;2023-05-10T03:45:23;0.83;;;0.83;;
17985;SDS011;9118;48.122;11.546;2023-05-10T03:47:51;1.70;;;1.60;;
17985;SDS011;9118;48.122;11.546;2023-05-10T03:50:18;1.90;;;1.70;;
17985;SDS011;9118;48.122;11.546;2023-05-10T03:52:45;1.93;;;1.60;;
17985;SDS011;9118;48.122;11.546;2023-05-10T03:55:13;0.90;;;0.90;;
17985;SDS011;9118;48.122;11.546;2023-05-10T03:57:40;1.20;;;1.20;;
17985;SDS011;9118;48.122;11.546;2023-05-10T04:00:08;1.30;;;1.10;;
17985;SDS011;9118;48.122;11.546;2023-05-10T04:02:38;1.00;;;1.00;;
17985;SDS011;9118;48.122;11.546;2023-05-10T04:05:05;1.27;;;1.17;;
17985;SDS011;9118;48.122;11.546;2023-05-10T04:07:33;1.23;;;1.13;;
17985;SDS011;9118;48.122;11.546;2023-05-10T04:10:00;1.00;;;0.80;;
17985;SDS011;9118;48.122;11.546;2023-05-10T04:12:27;1.00;;;0.90;;
17985;SDS011;9118;48.122;11.546;2023-05-10T04:14:54;0.93;;;0.80;;
17985;SDS011;9118;48.122;11.546;2023-05-10T04:17:21;1.20;;;1.10;;
17985;SDS011;9118;48.122;11.546;2023-05-10T04:19:49;1.10;;;1.00;;
17985;SDS011;9118;48.122;11.546;2023-05-10T04:22:19;1.17;;;0.80;;
17985;SDS011;9118;48.122;11.546;2023-05-10T04:24:48;0.70;;;0.70;;
17985;SDS011;9118;48.122;11.546;2023-05-10T04:27:15;0.90;;;0.90;;
17985;SDS011;9118;48.122;11.546;2023-05-10T04:29:43;1.40;;;0.80;;
17985;SDS011;9118;48.122;11.546;2023-05-10T04:32:10;0.60;;;0.60;;
17985;SDS011;9118;48.122;11.546;2023-05-10T04:34:38;0.80;;;0.80;;
17985;SDS011;9118;48.122;11.546;2023-05-10T04:37:07;0.80;;;0.80;;
17985;SDS011;9118;48.122;11.546;2023-05-10T04:39:35;0.83;;;0.80;;
17985;SDS011;9118;48.122;11.546;2023-05-10T04:42:03;1.00;;;0.90;;
17985;SDS011;9118;48.122;11.546;2023-05-10T04:44:30;2.77;;;2.57;;
17985;SDS011;9118;48.122;11.546;2023-05-10T04:46:57;1.00;;;1.00;;
17985;SDS011;9118;48.122;11.546;2023-05-10T04:49:25;0.90;;;0.73;;
17985;SDS011;9118;48.122;11.546;2023-05-10T04:51:53;1.10;;;1.10;;
17985;SDS011;9118;48.122;11.546;2023-05-10T04:54:22;0.73;;;0.73;;
17985;SDS011;9118;48.122;11.546;2023-05-10T04:56:49;0.50;;;0.50;;
17985;SDS011;9118;48.122;11.546;2023-05-10T04:59:16;0.63;;;0.60;;
17985;SDS011;9118;48.122;11.546;2023-05-10T05:01:43;0.90;;;0.90;;
17985;SDS011;9118;48.122;11.546;2023-05-10T05:04:10;1.57;;;0.80;;
17985;SDS011;9118;48.122;11.546;2023-05-10T05:06:38;1.30;;;0.80;;
17985;SDS011;9118;48.122;11.546;2023-05-10T05:09:07;1.27;;;0.63;;
17985;SDS011;9118;48.122;11.546;2023-05-10T05:11:53;0.77;;;0.77;;
17985;SDS011;9118;48.122;11.546;2023-05-10T05:14:20;0.70;;;0.70;;
17985;SDS011;9118;48.122;11.546;2023-05-10T05:16:50;2.50;;;1.07;;
17985;SDS011;9118;48.122;11.546;2023-05-10T05:19:17;1.27;;;0.80;;
17985;SDS011;9118;48.122;11.546;2023-05-10T05:21:44;1.10;;;0.93;;
17985;SDS011;9118;48.122;11.546;2023-05-10T05:24:11;0.93;;;0.70;;
17985;SDS011;9118;48.122;11.546;2023-05-10T05:26:39;1.00;;;1.00;;
17985;SDS011;9118;48.122;11.546;2023-05-10T05:29:08;1.80;;;0.73;;
17985;SDS011;9118;48.122;11.546;2023-05-10T05:31:35;1.17;;;1.07;;
17985;SDS011;9118;48.122;11.546;2023-05-10T05:34:08;2.33;;;0.90;;
17985;SDS011;9118;48.122;11.546;2023-05-10T05:36:52;0.70;;;0.70;;
17985;SDS011;9118;48.122;11.546;2023-05-10T05:39:20;1.73;;;1.20;;
17985;SDS011;9118;48.122;11.546;2023-05-10T05:41:50;1.67;;;0.77;;
17985;SDS011;9118;48.122;11.546;2023-05-10T05:44:19;1.13;;;0.90;;
17985;SDS011;9118;48.122;11.546;2023-05-10T05:46:54;0.90;;;0.80;;
17985;SDS011;9118;48.122;11.546;2023-05-10T05:49:42;0.80;;;0.80;;
17985;SDS011;9118;48.122;11.546;2023-05-10T05:52:11;2.03;;;1.20;;
17985;SDS011;9118;48.122;11.546;2023-05-10T05:54:38;1.10;;;1.00;;
17985;SDS011;9118;48.122;11.546;2023-05-10T05:57:05;1.00;;;1.00;;
17985;SDS011;9118;48.122;11.546;2023-05-10T05:59:34;1.80;;;1.17;;
17985;SDS011;9118;48.122;11.546;2023-05-10T06:02:01;0.70;;;0.70;;
17985;SDS011;9118;48.122;11.546;2023-05-10T06:04:28;1.47;;;0.97;;
17985;SDS011;9118;48.122;11.546;2023-05-10T06:06:55;1.20;;;1.10;;
17985;SDS011;9118;48.122;11.546;2023-05-10T06:09:22;1.00;;;1.00;;
17985;SDS011;9118;48.122;11.546;2023-05-10T06:11:49;1.33;;;1.00;;
17985;SDS011;9118;48.122;11.546;2023-05-10T06:14:16;1.90;;;1.00;;
17985;SDS011;9118;48.122;11.546;2023-05-10T06:16:45;3.30;;;3.00;;
17985;SDS011;9118;48.122;11.546;2023-05-10T06:19:12;1.23;;;1.00;;
17985;SDS011;9118;48.122;11.546;2023-05-10T06:21:39;1.53;;;1.43;;
17985;SDS011;9118;48.122;11.546;2023-05-10T06:24:06;1.97;;;1.53;;
17985;SDS011;9118;48.122;11.546;2023-05-10T06:26:33;2.33;;;1.43;;
17985;SDS011;9118;48.122;11.546;2023-05-10T06:29:00;1.87;;;1.73;;
17985;SDS011;9118;48.122;11.546;2023-05-10T06:31:27;1.90;;;1.50;;
17985;SDS011;9118;48.122;11.546;2023-05-10T06:33:56;1.30;;;1.20;;
17985;SDS011;9118;48.122;11.546;2023-05-10T06:36:23;1.50;;;1.40;;
17985;SDS011;9118;48.122;11.546;2023-05-10T06:38:51;2.67;;;1.10;;
17985;SDS011;9118;48.122;11.546;2023-05-10T06:41:18;2.53;;;1.47;;
17985;SDS011;9118;48.122;11.546;2023-05-10T06:43:45;1.43;;;1.33;;
17985;SDS011;9118;48.122;11.546;2023-05-10T06:46:12;1.50;;;1.40;;
17985;SDS011;9118;48.122;11.546;2023-05-10T06:48:39;9.27;;;1.87;;
17985;SDS011;9118;48.122;11.546;2023-05-10T06:51:08;1.40;;;1.30;;
17985;SDS011;9118;48.122;11.546;2023-05-10T06:53:34;1.77;;;1.60;;
17985;SDS011;9118;48.122;11.546;2023-05-10T06:56:02;1.80;;;1.70;;
17985;SDS011;9118;48.122;11.546;2023-05-10T06:58:29;1.50;;;1.40;;
17985;SDS011;9118;48.122;11.546;2023-05-10T07:01:01;3.40;;;1.50;;
17985;SDS011;9118;48.122;11.546;2023-05-10T07:03:29;2.00;;;1.67;;
17985;SDS011;9118;48.122;11.546;2023-05-10T07:05:59;2.67;;;1.83;;
17985;SDS011;9118;48.122;11.546;2023-05-10T07:08:30;2.10;;;1.90;;
17985;SDS011;9118;48.122;11.546;2023-05-10T07:11:01;1.60;;;1.50;;
17985;SDS011;9118;48.122;11.546;2023-05-10T07:13:28;1.67;;;1.57;;
17985;SDS011;9118;48.122;11.546;2023-05-10T07:15:56;1.63;;;1.50;;
17985;SDS011;9118;48.122;11.546;2023-05-10T07:18:23;1.70;;;1.60;;
17985;SDS011;9118;48.122;11.546;2023-05-10T07:20:50;1.90;;;1.80;;
17985;SDS011;9118;48.122;11.546;2023-05-10T07:23:17;1.30;;;1.30;;
17985;SDS011;9118;48.122;11.546;2023-05-10T07:25:46;1.93;;;1.80;;
17985;SDS011;9118;48.122;11.546;2023-05-10T07:28:14;1.97;;;1.60;;
17985;SDS011;9118;48.122;11.546;2023-05-10T07:30:42;1.53;;;1.40;;
17985;SDS011;9118;48.122;11.546;2023-05-10T07:33:09;2.93;;;1.60;;
17985;SDS011;9118;48.122;11.546;2023-05-10T07:35:37;2.60;;;1.50;;
17985;SDS011;9118;48.122;11.546;2023-05-10T07:38:05;1.80;;;1.70;;
17985;SDS011;9118;48.122;11.546;2023-05-10T07:40:32;2.63;;;1.80;;
17985;SDS011;9118;48.122;11.546;2023-05-10T07:43:00;1.60;;;1.50;;
17985;SDS011;9118;48.122;11.546;2023-05-10T07:45:27;1.70;;;1.60;;
17985;SDS011;9118;48.122;11.546;2023-05-10T07:47:54;2.30;;;2.10;;
17985;SDS011;9118;48.122;11.546;2023-05-10T07:50:21;2.10;;;1.60;;
17985;SDS011;9118;48.122;11.546;2023-05-10T07:52:48;1.70;;;1.60;;
17985;SDS011;9118;48.122;11.546;2023-05-10T07:55:15;1.70;;;1.60;;
17985;SDS011;9118;48.122;11.546;2023-05-10T07:57:44;1.60;;;1.50;;
17985;SDS011;9118;48.122;11.546;2023-05-10T08:00:13;1.60;;;1.50;;
17985;SDS011;9118;48.122;11.546;2023-05-10T08:02:44;2.00;;;1.63;;
17985;SDS011;9118;48.122;11.546;2023-05-10T08:05:11;1.63;;;1.50;;
17985;SDS011;9118;48.122;11.546;2023-05-10T08:07:38;2.23;;;1.43;;
17985;SDS011;9118;48.122;11.546;2023-05-10T08:10:06;2.20;;;1.40;;
17985;SDS011;9118;48.122;11.546;2023-05-10T08:12:34;1.60;;;1.50;;
17985;SDS011;9118;48.122;11.546;2023-05-10T08:15:01;1.67;;;1.57;;
17985;SDS011;9118;48.122;11.546;2023-05-10T08:17:30;3.73;;;1.40;;
17985;SDS011;9118;48.122;11.546;2023-05-10T08:19:57;3.37;;;1.57;;
17985;SDS011;9118;48.122;11.546;2023-05-10T08:22:24;1.50;;;1.40;;
17985;SDS011;9118;48.122;11.546;2023-05-10T08:24:51;1.30;;;1.30;;
17985;SDS011;9118;48.122;11.546;2023-05-10T08:27:18;2.57;;;1.40;;
17985;SDS011;9118;48.122;11.546;2023-05-10T08:29:45;1.83;;;1.60;;
17985;SDS011;9118;48.122;11.546;2023-05-10T08:32:12;1.57;;;1.47;;
17985;SDS011;9118;48.122;11.546;2023-05-10T08:34:40;1.60;;;1.50;;
17985;SDS011;9118;48.122;11.546;2023-05-10T08:37:07;1.40;;;1.30;;
17985;SDS011;9118;48.122;11.546;2023-05-10T08:39:35;1.57;;;1.40;;
17985;SDS011;9118;48.122;11.546;2023-05-10T08:42:04;3.27;;;1.70;;
17985;SDS011;9118;48.122;11.546;2023-05-10T08:44:34;1.50;;;1.40;;
17985;SDS011;9118;48.122;11.546;2023-05-10T08:47:02;2.50;;;1.30;;
17985;SDS011;9118;48.122;11.546;2023-05-10T08:49:32;2.10;;;1.90;;
17985;SDS011;9118;48.122;11.546;2023-05-10T08:52:02;1.80;;;1.40;;
17985;SDS011;9118;48.122;11.546;2023-05-10T08:54:31;1.50;;;1.40;;
17985;SDS011;9118;48.122;11.546;2023-05-10T08:56:58;1.43;;;1.30;;
17985;SDS011;9118;48.122;11.546;2023-05-10T08:59:25;1.60;;;1.20;;
17985;SDS011;9118;48.122;11.546;2023-05-10T09:01:53;1.73;;;1.57;;
17985;SDS011;9118;48.122;11.546;2023-05-10T09:04:23;1.40;;;1.30;;
17985;SDS011;9118;48.122;11.546;2023-05-10T09:06:51;1.57;;;1.30;;
17985;SDS011;9118;48.122;11.546;2023-05-10T09:09:19;2.80;;;1.67;;
17985;SDS011;9118;48.122;11.546;2023-05-10T09:11:47;1.80;;;1.70;;
17985;SDS011;9118;48.122;11.546;2023-05-10T09:14:14;1.37;;;1.30;;
17985;SDS011;9118;48.122;11.546;2023-05-10T09:16:42;3.17;;;1.70;;
17985;SDS011;9118;48.122;11.546;2023-05-10T09:19:09;1.30;;;1.30;;
17985;SDS011;9118;48.122;11.546;2023-05-10T09:21:37;2.80;;;1.20;;
17985;SDS011;9118;48.122;11.546;2023-05-10T09:24:04;2.37;;;1.30;;
17985;SDS011;9118;48.122;11.546;2023-05-10T09:26:33;1.23;;;1.10;;
17985;SDS011;9118;48.122;11.546;2023-05-10T09:29:02;1.47;;;1.00;;
17985;SDS011;9118;48.122;11.546;2023-05-10T09:34:20;1.33;;;1.23;;
17985;SDS011;9118;48.122;11.546;2023-05-10T09:36:55;1.40;;;1.30;;
17985;SDS011;9118;48.122;11.546;2023-05-10T09:39:29;1.20;;;1.20;;
17985;SDS011;9118;48.122;11.546;2023-05-10T09:41:59;1.30;;;1.20;;
17985;SDS011;9118;48.122;11.546;2023-05-10T09:44:29;1.00;;;1.00;;
17985;SDS011;9118;48.122;11.546;2023-05-10T09:46:57;1.87;;;1.47;;
17985;SDS011;9118;48.122;11.546;2023-05-10T09:49:24;2.77;;;1.70;;
17985;SDS011;9118;48.122;11.546;2023-05-10T09:51:59;1.83;;;1.40;;
17985;SDS011;9118;48.122;11.546;2023-05-10T09:54:27;2.63;;;1.27;;
17985;SDS011;9118;48.122;11.546;2023-05-10T09:56:55;3.83;;;1.60;;
17985;SDS011;9118;48.122;11.546;2023-05-10T09:59:24;1.37;;;1.10;;
17985;SDS011;9118;48.122;11.546;2023-05-10T10:01:52;1.50;;;1.13;;
17985;SDS011;9118;48.122;11.546;2023-05-10T10:04:20;1.00;;;1.00;;
17985;SDS011;9118;48.122;11.546;2023-05-10T10:06:47;1.60;;;1.50;;
17985;SDS011;9118;48.122;11.546;2023-05-10T10:09:25;3.60;;;1.87;;
17985;SDS011;9118;48.122;11.546;2023-05-10T10:11:53;1.97;;;1.50;;
17985;SDS011;9118;48.122;11.546;2023-05-10T10:14:21;1.70;;;1.47;;
17985;SDS011;9118;48.122;11.546;2023-05-10T10:16:50;1.50;;;1.40;;
17985;SDS011;9118;48.122;11.546;2023-05-10T10:19:18;3.90;;;1.30;;
17985;SDS011;9118;48.122;11.546;2023-05-10T10:21:46;2.10;;;1.50;;
17985;SDS011;9118;48.122;11.546;2023-05-10T10:24:13;1.50;;;1.40;;
17985;SDS011;9118;48.122;11.546;2023-05-10T10:26:40;1.40;;;1.20;;
17985;SDS011;9118;48.122;11.546;2023-05-10T10:29:11;2.03;;;1.20;;
17985;SDS011;9118;48.122;11.546;2023-05-10T10:31:47;1.40;;;1.30;;
17985;SDS011;9118;48.122;11.546;2023-05-10T10:34:21;1.43;;;1.33;;
17985;SDS011;9118;48.122;11.546;2023-05-10T10:36:53;1.33;;;1.30;;
17985;SDS011;9118;48.122;11.546;2023-05-10T10:39:22;1.67;;;1.57;;
17985;SDS011;9118;48.122;11.546;2023-05-10T10:41:50;1.50;;;1.40;;
17985;SDS011;9118;48.122;11.546;2023-05-10T10:44:30;1.40;;;1.30;;
17985;SDS011;9118;48.122;11.546;2023-05-10T10:50:01;1.77;;;1.33;;
17985;SDS011;9118;48.122;11.546;2023-05-10T10:52:31;1.20;;;1.20;;
17985;SDS011;9118;48.122;11.546;2023-05-10T10:55:00;1.40;;;1.30;;
17985;SDS011;9118;48.122;11.546;2023-05-10T10:57:31;3.20;;;1.77;;
17985;SDS011;9118;48.122;11.546;2023-05-10T11:03:03;1.70;;;1.60;;
17985;SDS011;9118;48.122;11.546;2023-05-10T11:05:36;6.43;;;4.47;;
17985;SDS011;9118;48.122;11.546;2023-05-10T11:11:01;2.57;;;1.90;;
17985;SDS011;9118;48.122;11.546;2023-05-10T11:13:32;2.27;;;1.77;;
17985;SDS011;9118;48.122;11.546;2023-05-10T11:16:09;2.30;;;1.73;;
17985;SDS011;9118;48.122;11.546;2023-05-10T11:18:58;2.77;;;1.80;;
17985;SDS011;9118;48.122;11.546;2023-05-10T11:21:27;3.00;;;2.10;;
17985;SDS011;9118;48.122;11.546;2023-05-10T11:23:55;4.00;;;2.60;;
17985;SDS011;9118;48.122;11.546;2023-05-10T11:26:23;2.97;;;2.30;;
17985;SDS011;9118;48.122;11.546;2023-05-10T11:28:51;2.43;;;2.23;;
17985;SDS011;9118;48.122;11.546;2023-05-10T11:31:21;2.20;;;2.00;;
17985;SDS011;9118;48.122;11.546;2023-05-10T11:33:51;2.53;;;2.17;;
17985;SDS011;9118;48.122;11.546;2023-05-10T11:36:23;4.23;;;2.20;;
17985;SDS011;9118;48.122;11.546;2023-05-10T11:38:51;3.20;;;2.63;;
17985;SDS011;9118;48.122;11.546;2023-05-10T11:41:19;3.10;;;2.80;;
17985;SDS011;9118;48.122;11.546;2023-05-10T11:43:49;3.13;;;2.60;;
17985;SDS011;9118;48.122;11.546;2023-05-10T11:46:18;3.80;;;3.40;;
17985;SDS011;9118;48.122;11.546;2023-05-10T11:48:46;3.67;;;3.33;;
17985;SDS011;9118;48.122;11.546;2023-05-10T11:51:19;4.17;;;2.97;;
17985;SDS011;9118;48.122;11.546;2023-05-10T11:53:49;3.07;;;2.70;;
17985;SDS011;9118;48.122;11.546;2023-05-10T11:56:17;6.17;;;2.67;;
17985;SDS011;9118;48.122;11.546;2023-05-10T11:58:44;2.63;;;2.20;;
17985;SDS011;9118;48.122;11.546;2023-05-10T12:01:12;2.20;;;2.07;;
17985;SDS011;9118;48.122;11.546;2023-05-10T12:03:39;2.10;;;1.90;;
17985;SDS011;9118;48.122;11.546;2023-05-10T12:06:06;2.87;;;1.77;;
17985;SDS011;9118;48.122;11.546;2023-05-10T12:08:35;4.43;;;2.10;;
17985;SDS011;9118;48.122;11.546;2023-05-10T12:11:06;2.40;;;2.07;;
17985;SDS011;9118;48.122;11.546;2023-05-10T12:13:37;2.67;;;1.80;;
17985;SDS011;9118;48.122;11.546;2023-05-10T12:16:12;2.20;;;2.00;;
17985;SDS011;9118;48.122;11.546;2023-05-10T12:18:40;2.77;;;2.07;;
17985;SDS011;9118;48.122;11.546;2023-05-10T12:21:08;3.13;;;2.17;;
17985;SDS011;9118;48.122;11.546;2023-05-10T12:23:37;2.70;;;2.40;;
17985;SDS011;9118;48.122;11.546;2023-05-10T12:26:05;4.10;;;2.60;;
17985;SDS011;9118;48.122;11.546;2023-05-10T12:28:32;3.37;;;2.10;;
17985;SDS011;9118;48.122;11.546;2023-05-10T12:31:00;2.60;;;2.20;;
17985;SDS011;9118;48.122;11.546;2023-05-10T12:33:35;2.90;;;2.60;;
17985;SDS011;9118;48.122;11.546;2023-05-10T12:36:05;3.20;;;2.90;;
17985;SDS011;9118;48.122;11.546;2023-05-10T12:38:33;3.83;;;2.10;;
17985;SDS011;9118;48.122;11.546;2023-05-10T12:41:06;4.63;;;2.67;;
17985;SDS011;9118;48.122;11.546;2023-05-10T12:43:34;4.60;;;2.83;;
17985;SDS011;9118;48.122;11.546;2023-05-10T12:46:04;2.93;;;2.20;;
17985;SDS011;9118;48.122;11.546;2023-05-10T12:48:34;2.83;;;2.00;;
17985;SDS011;9118;48.122;11.546;2023-05-10T12:51:01;2.57;;;2.37;;
17985;SDS011;9118;48.122;11.546;2023-05-10T12:53:29;4.83;;;2.10;;
17985;SDS011;9118;48.122;11.546;2023-05-10T12:55:56;3.60;;;2.10;;
17985;SDS011;9118;48.122;11.546;2023-05-10T12:58:24;2.77;;;2.00;;
17985;SDS011;9118;48.122;11.546;2023-05-10T13:00:51;4.20;;;2.20;;
17985;SDS011;9118;48.122;11.546;2023-05-10T13:03:19;2.40;;;2.03;;
17985;SDS011;9118;48.122;11.546;2023-05-10T13:05:46;1.80;;;1.70;;
17985;SDS011;9118;48.122;11.546;2023-05-10T13:08:13;3.17;;;2.17;;
17985;SDS011;9118;48.122;11.546;2023-05-10T13:10:40;2.53;;;2.00;;
17985;SDS011;9118;48.122;11.546;2023-05-10T13:13:07;3.50;;;2.57;;
17985;SDS011;9118;48.122;11.546;2023-05-10T13:15:36;2.87;;;1.90;;
17985;SDS011;9118;48.122;11.546;2023-05-10T13:18:03;2.80;;;2.10;;
17985;SDS011;9118;48.122;11.546;2023-05-10T13:20:30;2.37;;;2.17;;
17985;SDS011;9118;48.122;11.546;2023-05-10T13:22:57;2.83;;;2.10;;
17985;SDS011;9118;48.122;11.546;2023-05-10T13:25:24;4.10;;;2.40;;
17985;SDS011;9118;48.122;11.546;2023-05-10T13:27:51;2.70;;;1.97;;
17985;SDS011;9118;48.122;11.546;2023-05-10T13:30:18;3.50;;;2.70;;
17985;SDS011;9118;48.122;11.546;2023-05-10T13:32:46;3.60;;;2.20;;
17985;SDS011;9118;48.122;11.546;2023-05-10T13:35:14;2.43;;;2.13;;
17985;SDS011;9118;48.122;11.546;2023-05-10T13:37:41;5.73;;;2.47;;
17985;SDS011;9118;48.122;11.546;2023-05-10T13:40:08;4.90;;;2.37;;
17985;SDS011;9118;48.122;11.546;2023-05-10T13:42:35;3.27;;;2.47;;
17985;SDS011;9118;48.122;11.546;2023-05-10T13:45:02;6.43;;;2.90;;
17985;SDS011;9118;48.122;11.546;2023-05-10T13:47:30;2.23;;;2.00;;
17985;SDS011;9118;48.122;11.546;2023-05-10T13:49:58;2.57;;;2.37;;
17985;SDS011;9118;48.122;11.546;2023-05-10T13:52:26;3.27;;;2.43;;
17985;SDS011;9118;48.122;11.546;2023-05-10T13:54:53;3.47;;;2.30;;
17985;SDS011;9118;48.122;11.546;2023-05-10T13:57:21;3.80;;;3.40;;
17985;SDS011;9118;48.122;11.546;2023-05-10T13:59:48;2.63;;;2.10;;
17985;SDS011;9118;48.122;11.546;2023-05-10T14:02:16;2.23;;;1.40;;
17985;SDS011;9118;48.122;11.546;2023-05-10T14:04:43;2.63;;;1.63;;
17985;SDS011;9118;48.122;11.546;2023-05-10T14:07:12;2.03;;;1.70;;
17985;SDS011;9118;48.122;11.546;2023-05-10T14:09:39;1.70;;;1.60;;
17985;SDS011;9118;48.122;11.546;2023-05-10T14:12:06;2.57;;;2.10;;
17985;SDS011;9118;48.122;11.546;2023-05-10T14:14:33;4.33;;;2.60;;
17985;SDS011;9118;48.122;11.546;2023-05-10T14:17:00;2.37;;;2.10;;
17985;SDS011;9118;48.122;11.546;2023-05-10T14:19:29;2.70;;;2.40;;
17985;SDS011;9118;48.122;11.546;2023-05-10T14:21:57;2.63;;;2.10;;
17985;SDS011;9118;48.122;11.546;2023-05-10T14:24:26;2.50;;;2.30;;
17985;SDS011;9118;48.122;11.546;2023-05-10T14:26:53;2.60;;;2.40;;
17985;SDS011;9118;48.122;11.546;2023-05-10T14:29:20;2.27;;;2.07;;
17985;SDS011;9118;48.122;11.546;2023-05-10T14:31:48;3.00;;;2.00;;
17985;SDS011;9118;48.122;11.546;2023-05-10T14:34:16;2.40;;;2.20;;
17985;SDS011;9118;48.122;11.546;2023-05-10T14:36:45;3.20;;;2.27;;
17985;SDS011;9118;48.122;11.546;2023-05-10T14:39:12;2.50;;;2.10;;
17985;SDS011;9118;48.122;11.546;2023-05-10T14:41:40;1.60;;;1.50;;
17985;SDS011;9118;48.122;11.546;2023-05-10T14:44:09;1.80;;;1.37;;
17985;SDS011;9118;48.122;11.546;2023-05-10T14:46:37;1.83;;;1.67;;
17985;SDS011;9118;48.122;11.546;2023-05-10T14:49:04;2.53;;;1.53;;
17985;SDS011;9118;48.122;11.546;2023-05-10T14:51:31;3.23;;;1.40;;
17985;SDS011;9118;48.122;11.546;2023-05-10T14:53:59;1.63;;;1.30;;
17985;SDS011;9118;48.122;11.546;2023-05-10T14:56:26;1.47;;;1.37;;
17985;SDS011;9118;48.122;11.546;2023-05-10T14:58:54;1.33;;;1.30;;
17985;SDS011;9118;48.122;11.546;2023-05-10T15:01:21;3.00;;;1.77;;
17985;SDS011;9118;48.122;11.546;2023-05-10T15:03:48;1.70;;;1.60;;
17985;SDS011;9118;48.122;11.546;2023-05-10T15:06:16;2.37;;;1.70;;
17985;SDS011;9118;48.122;11.546;2023-05-10T15:08:43;2.30;;;2.10;;
17985;SDS011;9118;48.122;11.546;2023-05-10T15:11:10;1.63;;;1.53;;
17985;SDS011;9118;48.122;11.546;2023-05-10T15:13:37;2.30;;;1.70;;
17985;SDS011;9118;48.122;11.546;2023-05-10T15:16:07;2.50;;;2.00;;
17985;SDS011;9118;48.122;11.546;2023-05-10T15:18:51;2.30;;;2.10;;